createdAt,value
2022-09-02T00:13:47.155Z,100758.74
2022-09-02T00:35:33.470Z,100762.98
2022-09-02T00:57:23.430Z,100770.89
2022-09-02T01:19:17.642Z,100769.75
2022-09-02T01:41:03.562Z,100769.23
2022-09-02T02:02:49.693Z,100774.20
2022-09-02T02:24:36.023Z,100762.04
2022-09-02T02:46:21.951Z,100758.57
2022-09-02T03:08:10.877Z,100758.61
2022-09-02T03:29:57.012Z,100754.32
2022-09-02T03:51:44.914Z,100747.94
2022-09-02T04:13:31.000Z,100754.11
2022-09-02T04:35:17.003Z,100759.80
2022-09-02T04:57:02.856Z,100764.85
2022-09-02T05:18:49.060Z,100763.80
2022-09-02T05:40:35.059Z,100763.23
2022-09-02T06:02:20.822Z,100763.76
2022-09-02T06:24:10.020Z,100768.08
2022-09-02T06:45:55.761Z,100767.77
2022-09-02T07:07:43.421Z,100767.43
2022-09-02T07:29:29.156Z,100776.84
2022-09-02T07:51:15.093Z,100784.53
2022-09-02T08:13:02.377Z,100789.52
2022-09-02T08:34:48.417Z,100783.01
2022-09-02T08:56:36.595Z,100773.39
2022-09-02T09:18:29.791Z,100747.36
2022-09-02T09:40:30.825Z,100717.25
2022-09-02T10:02:23.910Z,100686.79
2022-09-02T10:24:22.937Z,100673.17
2022-09-02T10:46:11.732Z,100651.13
2022-09-02T11:08:04.011Z,100644.14
2022-09-02T11:30:01.331Z,100640.59
2022-09-02T11:52:01.234Z,100626.20
2022-09-02T12:35:57.720Z,100598.55
2022-09-02T12:57:45.197Z,100586.00
2022-09-02T13:19:52.658Z,100573.30
2022-09-02T13:41:38.726Z,100559.78
2022-09-02T14:03:25.274Z,100536.44
2022-09-02T14:25:17.396Z,100531.59
2022-09-02T14:47:06.193Z,100533.80
2022-09-02T15:08:51.867Z,100534.59
2022-09-02T15:30:38.599Z,100526.53
2022-09-02T15:52:24.777Z,100524.08
2022-09-02T16:14:11.469Z,100520.51
2022-09-02T16:35:57.203Z,100515.75
2022-09-02T16:57:43.044Z,100503.52
2022-09-02T17:19:32.446Z,100505.90
2022-09-02T17:41:36.175Z,100508.84
2022-09-02T18:03:32.180Z,100507.22
2022-09-02T18:25:34.410Z,100518.29
2022-09-02T18:47:25.481Z,100521.07
2022-09-02T19:09:15.474Z,100530.30
2022-09-02T19:31:04.460Z,100541.30
2022-09-02T19:52:51.604Z,100541.96
2022-09-02T20:14:38.144Z,100552.49
2022-09-02T20:36:28.101Z,100544.70
2022-09-02T20:58:24.625Z,100550.33
2022-09-02T21:20:21.285Z,100551.91
2022-09-02T21:42:19.823Z,100554.86
2022-09-02T22:04:12.214Z,100540.15
2022-09-02T22:26:04.080Z,100542.08
2022-09-02T22:48:10.739Z,100547.23
2022-09-02T23:09:59.204Z,100552.67
2022-09-02T23:32:09.317Z,100543.35
2022-09-02T23:54:17.070Z,100530.77
